Augsburg, Illinois
Current Conditions -  °F | °C
As of 9:35 PM on Friday 28 Nov 2014 (Local Time) from KENL Reporting Station
Clear Clear  
Wind Chill:   Ceiling: Unl
Heat Index:   Visibility: 10mi
Dew Point: -2°   Wind: 10mph
Humidity: 70%   Direction: 170°S
Pressure: 29.95"   Gusts: NA
Location:  38.8463°N, 89.0894°W
Report Text: KENL 290335Z AUTO 17009KT 10SM CLR 03/M02 A2995 RMK AO2 T00341016
Loading
Personal Weather Stations






























Interactive Weather Map New forecast layout! Learn more

10-Day Weather Forecast

Advertisements
Track Severe Weather on mobile